sensor_id;sensor_type;location;lat;lon;timestamp;P1;durP1;ratioP1;P2;durP2;ratioP2
71637;SDS011;59485;43.542;-5.676;2022-08-11T00:01:55;91.25;;;44.85;;
71637;SDS011;59485;43.542;-5.676;2022-08-11T00:04:24;91.80;;;45.92;;
71637;SDS011;59485;43.542;-5.676;2022-08-11T00:06:51;85.57;;;43.70;;
71637;SDS011;59485;43.542;-5.676;2022-08-11T00:09:20;95.63;;;47.35;;
71637;SDS011;59485;43.542;-5.676;2022-08-11T00:11:55;96.15;;;47.60;;
71637;SDS011;59485;43.542;-5.676;2022-08-11T00:14:26;89.20;;;46.60;;
71637;SDS011;59485;43.542;-5.676;2022-08-11T00:16:54;88.68;;;47.25;;
71637;SDS011;59485;43.542;-5.676;2022-08-11T00:19:23;93.00;;;46.03;;
71637;SDS011;59485;43.542;-5.676;2022-08-11T00:21:50;85.40;;;44.85;;
71637;SDS011;59485;43.542;-5.676;2022-08-11T00:24:18;95.40;;;45.63;;
71637;SDS011;59485;43.542;-5.676;2022-08-11T00:26:52;85.35;;;43.90;;
71637;SDS011;59485;43.542;-5.676;2022-08-11T00:29:19;93.10;;;47.28;;
71637;SDS011;59485;43.542;-5.676;2022-08-11T00:31:50;92.47;;;47.27;;
71637;SDS011;59485;43.542;-5.676;2022-08-11T00:34:20;90.30;;;44.67;;
71637;SDS011;59485;43.542;-5.676;2022-08-11T00:36:52;104.10;;;48.67;;
71637;SDS011;59485;43.542;-5.676;2022-08-11T00:39:19;104.32;;;50.40;;
71637;SDS011;59485;43.542;-5.676;2022-08-11T00:47:26;100.72;;;49.25;;
71637;SDS011;59485;43.542;-5.676;2022-08-11T01:04:15;99.43;;;46.85;;
71637;SDS011;59485;43.542;-5.676;2022-08-11T01:07:04;94.10;;;44.95;;
71637;SDS011;59485;43.542;-5.676;2022-08-11T01:21:02;62.58;;;35.75;;
71637;SDS011;59485;43.542;-5.676;2022-08-11T01:52:18;84.28;;;40.28;;
71637;SDS011;59485;43.542;-5.676;2022-08-11T01:57:51;95.70;;;45.45;;
71637;SDS011;59485;43.542;-5.676;2022-08-11T02:00:23;97.97;;;45.20;;
71637;SDS011;59485;43.542;-5.676;2022-08-11T02:02:57;105.32;;;44.50;;
71637;SDS011;59485;43.542;-5.676;2022-08-11T02:19:41;111.22;;;42.38;;
71637;SDS011;59485;43.542;-5.676;2022-08-11T02:22:39;104.07;;;39.23;;
71637;SDS011;59485;43.542;-5.676;2022-08-11T02:28:28;83.20;;;31.48;;
71637;SDS011;59485;43.542;-5.676;2022-08-11T02:34:27;99.68;;;31.58;;
71637;SDS011;59485;43.542;-5.676;2022-08-11T02:39:42;93.55;;;36.28;;
71637;SDS011;59485;43.542;-5.676;2022-08-11T02:57:15;87.38;;;38.10;;
71637;SDS011;59485;43.542;-5.676;2022-08-11T02:59:50;90.67;;;37.93;;
71637;SDS011;59485;43.542;-5.676;2022-08-11T03:22:55;101.82;;;44.88;;
71637;SDS011;59485;43.542;-5.676;2022-08-11T03:25:35;91.68;;;41.63;;
71637;SDS011;59485;43.542;-5.676;2022-08-11T03:33:42;93.55;;;40.97;;
71637;SDS011;59485;43.542;-5.676;2022-08-11T03:44:55;74.75;;;37.40;;
71637;SDS011;59485;43.542;-5.676;2022-08-11T03:50:52;72.88;;;35.92;;
71637;SDS011;59485;43.542;-5.676;2022-08-11T04:20:17;58.58;;;32.78;;
71637;SDS011;59485;43.542;-5.676;2022-08-11T04:23:01;59.00;;;32.30;;
71637;SDS011;59485;43.542;-5.676;2022-08-11T04:25:55;57.63;;;33.10;;
71637;SDS011;59485;43.542;-5.676;2022-08-11T04:31:07;56.00;;;32.08;;
71637;SDS011;59485;43.542;-5.676;2022-08-11T04:43:14;65.22;;;37.20;;
71637;SDS011;59485;43.542;-5.676;2022-08-11T05:13:28;53.60;;;30.50;;
71637;SDS011;59485;43.542;-5.676;2022-08-11T05:16:25;64.10;;;34.23;;
71637;SDS011;59485;43.542;-5.676;2022-08-11T05:19:19;55.63;;;30.73;;
71637;SDS011;59485;43.542;-5.676;2022-08-11T05:22:05;48.03;;;31.17;;
71637;SDS011;59485;43.542;-5.676;2022-08-11T05:24:59;71.53;;;35.28;;
71637;SDS011;59485;43.542;-5.676;2022-08-11T05:28:04;54.50;;;30.50;;
71637;SDS011;59485;43.542;-5.676;2022-08-11T05:30:56;54.83;;;30.47;;
71637;SDS011;59485;43.542;-5.676;2022-08-11T05:33:46;64.07;;;36.50;;
71637;SDS011;59485;43.542;-5.676;2022-08-11T05:39:11;42.15;;;27.55;;
71637;SDS011;59485;43.542;-5.676;2022-08-11T05:41:58;48.83;;;30.25;;
71637;SDS011;59485;43.542;-5.676;2022-08-11T05:44:44;47.03;;;26.90;;
71637;SDS011;59485;43.542;-5.676;2022-08-11T05:47:30;45.63;;;26.20;;
71637;SDS011;59485;43.542;-5.676;2022-08-11T05:50:17;38.92;;;26.65;;
71637;SDS011;59485;43.542;-5.676;2022-08-11T05:53:02;32.30;;;24.08;;
71637;SDS011;59485;43.542;-5.676;2022-08-11T05:55:47;41.03;;;27.80;;
71637;SDS011;59485;43.542;-5.676;2022-08-11T05:58:45;41.73;;;27.10;;
71637;SDS011;59485;43.542;-5.676;2022-08-11T06:01:20;50.20;;;28.77;;
71637;SDS011;59485;43.542;-5.676;2022-08-11T06:03:49;46.53;;;30.20;;
71637;SDS011;59485;43.542;-5.676;2022-08-11T06:06:36;47.33;;;28.25;;
71637;SDS011;59485;43.542;-5.676;2022-08-11T06:09:04;45.55;;;28.63;;
71637;SDS011;59485;43.542;-5.676;2022-08-11T06:11:30;51.70;;;29.17;;
71637;SDS011;59485;43.542;-5.676;2022-08-11T06:14:05;54.63;;;30.20;;
71637;SDS011;59485;43.542;-5.676;2022-08-11T06:16:32;40.45;;;26.10;;
71637;SDS011;59485;43.542;-5.676;2022-08-11T06:18:59;35.55;;;23.80;;
71637;SDS011;59485;43.542;-5.676;2022-08-11T06:21:25;47.50;;;29.73;;
71637;SDS011;59485;43.542;-5.676;2022-08-11T06:23:52;46.55;;;30.58;;
71637;SDS011;59485;43.542;-5.676;2022-08-11T06:26:18;53.33;;;31.27;;
71637;SDS011;59485;43.542;-5.676;2022-08-11T06:28:44;41.83;;;28.33;;
71637;SDS011;59485;43.542;-5.676;2022-08-11T06:31:20;41.03;;;29.70;;
71637;SDS011;59485;43.542;-5.676;2022-08-11T06:36:42;38.33;;;25.17;;
71637;SDS011;59485;43.542;-5.676;2022-08-11T06:39:41;41.90;;;25.13;;
71637;SDS011;59485;43.542;-5.676;2022-08-11T06:42:15;47.83;;;26.20;;
71637;SDS011;59485;43.542;-5.676;2022-08-11T06:45:13;37.03;;;26.80;;
71637;SDS011;59485;43.542;-5.676;2022-08-11T06:47:49;50.67;;;29.40;;
71637;SDS011;59485;43.542;-5.676;2022-08-11T06:50:19;45.63;;;29.88;;
71637;SDS011;59485;43.542;-5.676;2022-08-11T06:53:06;45.45;;;28.73;;
71637;SDS011;59485;43.542;-5.676;2022-08-11T06:55:40;50.42;;;31.08;;
71637;SDS011;59485;43.542;-5.676;2022-08-11T06:58:28;54.40;;;31.20;;
71637;SDS011;59485;43.542;-5.676;2022-08-11T07:01:18;46.35;;;31.02;;
71637;SDS011;59485;43.542;-5.676;2022-08-11T07:04:10;46.30;;;30.55;;
71637;SDS011;59485;43.542;-5.676;2022-08-11T07:06:47;48.60;;;28.67;;
71637;SDS011;59485;43.542;-5.676;2022-08-11T07:09:46;53.63;;;31.90;;
71637;SDS011;59485;43.542;-5.676;2022-08-11T07:12:52;43.73;;;29.07;;
71637;SDS011;59485;43.542;-5.676;2022-08-11T07:15:42;46.63;;;29.33;;
71637;SDS011;59485;43.542;-5.676;2022-08-11T07:21:04;38.95;;;26.73;;
71637;SDS011;59485;43.542;-5.676;2022-08-11T07:23:58;46.10;;;30.05;;
71637;SDS011;59485;43.542;-5.676;2022-08-11T07:26:47;43.97;;;28.97;;
71637;SDS011;59485;43.542;-5.676;2022-08-11T07:32:12;27.80;;;18.02;;
71637;SDS011;59485;43.542;-5.676;2022-08-11T07:34:43;51.28;;;17.05;;
71637;SDS011;59485;43.542;-5.676;2022-08-11T07:37:14;29.40;;;16.33;;
71637;SDS011;59485;43.542;-5.676;2022-08-11T07:39:45;23.87;;;17.07;;
71637;SDS011;59485;43.542;-5.676;2022-08-11T07:42:13;19.65;;;16.35;;
71637;SDS011;59485;43.542;-5.676;2022-08-11T07:44:40;23.02;;;20.15;;
71637;SDS011;59485;43.542;-5.676;2022-08-11T07:47:26;23.95;;;19.95;;
71637;SDS011;59485;43.542;-5.676;2022-08-11T07:50:11;41.83;;;30.75;;
71637;SDS011;59485;43.542;-5.676;2022-08-11T07:52:56;33.47;;;26.87;;
71637;SDS011;59485;43.542;-5.676;2022-08-11T07:55:26;23.88;;;21.38;;
71637;SDS011;59485;43.542;-5.676;2022-08-11T07:57:54;23.17;;;20.85;;
71637;SDS011;59485;43.542;-5.676;2022-08-11T08:00:48;23.25;;;20.75;;
71637;SDS011;59485;43.542;-5.676;2022-08-11T08:03:36;27.95;;;25.05;;
71637;SDS011;59485;43.542;-5.676;2022-08-11T08:06:21;30.33;;;26.87;;
71637;SDS011;59485;43.542;-5.676;2022-08-11T08:09:06;33.30;;;27.27;;
71637;SDS011;59485;43.542;-5.676;2022-08-11T08:11:51;35.67;;;29.63;;
71637;SDS011;59485;43.542;-5.676;2022-08-11T08:14:35;40.33;;;32.72;;
71637;SDS011;59485;43.542;-5.676;2022-08-11T08:17:21;36.33;;;31.95;;
71637;SDS011;59485;43.542;-5.676;2022-08-11T08:20:07;37.37;;;30.53;;
71637;SDS011;59485;43.542;-5.676;2022-08-11T08:22:35;35.30;;;28.90;;
71637;SDS011;59485;43.542;-5.676;2022-08-11T08:25:02;30.98;;;24.25;;
71637;SDS011;59485;43.542;-5.676;2022-08-11T08:27:29;29.00;;;23.17;;
71637;SDS011;59485;43.542;-5.676;2022-08-11T08:29:54;30.20;;;24.23;;
71637;SDS011;59485;43.542;-5.676;2022-08-11T08:32:40;33.30;;;28.60;;
71637;SDS011;59485;43.542;-5.676;2022-08-11T08:35:09;40.80;;;34.45;;
71637;SDS011;59485;43.542;-5.676;2022-08-11T08:37:35;32.60;;;27.00;;
71637;SDS011;59485;43.542;-5.676;2022-08-11T08:40:02;32.63;;;28.10;;
71637;SDS011;59485;43.542;-5.676;2022-08-11T08:42:30;40.15;;;31.55;;
71637;SDS011;59485;43.542;-5.676;2022-08-11T08:45:04;35.67;;;31.70;;
71637;SDS011;59485;43.542;-5.676;2022-08-11T08:47:35;38.20;;;29.48;;
71637;SDS011;59485;43.542;-5.676;2022-08-11T08:50:05;32.42;;;23.25;;
71637;SDS011;59485;43.542;-5.676;2022-08-11T08:52:36;27.80;;;20.57;;
71637;SDS011;59485;43.542;-5.676;2022-08-11T08:55:06;26.98;;;21.35;;
71637;SDS011;59485;43.542;-5.676;2022-08-11T08:57:34;25.50;;;20.52;;
71637;SDS011;59485;43.542;-5.676;2022-08-11T09:00:01;25.65;;;18.20;;
71637;SDS011;59485;43.542;-5.676;2022-08-11T09:02:28;25.45;;;18.92;;
71637;SDS011;59485;43.542;-5.676;2022-08-11T09:04:55;26.13;;;19.27;;
71637;SDS011;59485;43.542;-5.676;2022-08-11T09:07:22;28.45;;;21.30;;
71637;SDS011;59485;43.542;-5.676;2022-08-11T09:09:55;36.83;;;24.13;;
71637;SDS011;59485;43.542;-5.676;2022-08-11T09:12:25;43.67;;;27.20;;
71637;SDS011;59485;43.542;-5.676;2022-08-11T09:14:52;30.48;;;22.75;;
71637;SDS011;59485;43.542;-5.676;2022-08-11T09:17:26;30.23;;;23.47;;
71637;SDS011;59485;43.542;-5.676;2022-08-11T09:20:16;35.22;;;26.58;;
71637;SDS011;59485;43.542;-5.676;2022-08-11T09:22:50;38.08;;;29.58;;
71637;SDS011;59485;43.542;-5.676;2022-08-11T09:25:40;39.67;;;29.67;;
71637;SDS011;59485;43.542;-5.676;2022-08-11T09:28:24;25.95;;;21.98;;
71637;SDS011;59485;43.542;-5.676;2022-08-11T09:30:56;36.20;;;27.60;;
71637;SDS011;59485;43.542;-5.676;2022-08-11T09:33:25;31.10;;;25.48;;
71637;SDS011;59485;43.542;-5.676;2022-08-11T09:35:53;25.08;;;22.27;;
71637;SDS011;59485;43.542;-5.676;2022-08-11T09:38:19;27.73;;;21.27;;
71637;SDS011;59485;43.542;-5.676;2022-08-11T09:41:08;31.10;;;22.73;;
71637;SDS011;59485;43.542;-5.676;2022-08-11T09:43:35;34.17;;;27.27;;
71637;SDS011;59485;43.542;-5.676;2022-08-11T09:46:25;31.48;;;24.50;;
71637;SDS011;59485;43.542;-5.676;2022-08-11T09:48:53;32.15;;;25.48;;
71637;SDS011;59485;43.542;-5.676;2022-08-11T09:51:23;35.03;;;25.85;;
71637;SDS011;59485;43.542;-5.676;2022-08-11T09:53:52;35.60;;;25.85;;
71637;SDS011;59485;43.542;-5.676;2022-08-11T09:56:19;32.17;;;23.83;;
71637;SDS011;59485;43.542;-5.676;2022-08-11T09:59:05;36.17;;;26.55;;
71637;SDS011;59485;43.542;-5.676;2022-08-11T10:01:39;34.28;;;24.50;;
71637;SDS011;59485;43.542;-5.676;2022-08-11T10:04:17;32.47;;;23.52;;
71637;SDS011;59485;43.542;-5.676;2022-08-11T10:06:48;30.33;;;22.23;;
71637;SDS011;59485;43.542;-5.676;2022-08-11T10:09:26;33.40;;;21.38;;
71637;SDS011;59485;43.542;-5.676;2022-08-11T10:11:58;30.55;;;23.40;;
71637;SDS011;59485;43.542;-5.676;2022-08-11T10:14:27;43.20;;;32.97;;
71637;SDS011;59485;43.542;-5.676;2022-08-11T10:17:15;32.03;;;21.60;;
71637;SDS011;59485;43.542;-5.676;2022-08-11T10:19:42;28.67;;;20.93;;
71637;SDS011;59485;43.542;-5.676;2022-08-11T10:22:11;36.88;;;24.45;;
71637;SDS011;59485;43.542;-5.676;2022-08-11T10:24:58;31.35;;;24.73;;
71637;SDS011;59485;43.542;-5.676;2022-08-11T10:28:04;28.25;;;22.30;;
71637;SDS011;59485;43.542;-5.676;2022-08-11T10:30:32;30.88;;;23.35;;
71637;SDS011;59485;43.542;-5.676;2022-08-11T10:33:17;38.10;;;22.53;;
71637;SDS011;59485;43.542;-5.676;2022-08-11T10:36:02;30.58;;;20.58;;
71637;SDS011;59485;43.542;-5.676;2022-08-11T10:38:30;23.67;;;19.85;;
71637;SDS011;59485;43.542;-5.676;2022-08-11T10:40:56;39.17;;;27.30;;
71637;SDS011;59485;43.542;-5.676;2022-08-11T10:43:40;27.50;;;21.87;;
71637;SDS011;59485;43.542;-5.676;2022-08-11T10:46:08;25.05;;;16.75;;
71637;SDS011;59485;43.542;-5.676;2022-08-11T10:48:53;23.13;;;17.70;;
71637;SDS011;59485;43.542;-5.676;2022-08-11T10:51:22;25.65;;;17.33;;
71637;SDS011;59485;43.542;-5.676;2022-08-11T10:54:08;24.15;;;14.70;;
71637;SDS011;59485;43.542;-5.676;2022-08-11T10:56:53;24.47;;;15.17;;
71637;SDS011;59485;43.542;-5.676;2022-08-11T10:59:38;23.67;;;16.48;;
71637;SDS011;59485;43.542;-5.676;2022-08-11T11:02:06;28.38;;;22.00;;
71637;SDS011;59485;43.542;-5.676;2022-08-11T11:09:46;28.00;;;19.00;;
71637;SDS011;59485;43.542;-5.676;2022-08-11T11:12:34;53.92;;;36.38;;
71637;SDS011;59485;43.542;-5.676;2022-08-11T11:15:21;41.05;;;25.98;;
71637;SDS011;59485;43.542;-5.676;2022-08-11T11:18:12;24.30;;;16.25;;
71637;SDS011;59485;43.542;-5.676;2022-08-11T11:20:52;24.02;;;15.57;;
71637;SDS011;59485;43.542;-5.676;2022-08-11T11:29:02;22.45;;;15.02;;
71637;SDS011;59485;43.542;-5.676;2022-08-11T11:37:06;56.63;;;34.40;;
71637;SDS011;59485;43.542;-5.676;2022-08-11T11:39:33;30.27;;;20.25;;
71637;SDS011;59485;43.542;-5.676;2022-08-11T11:42:07;24.80;;;18.10;;
71637;SDS011;59485;43.542;-5.676;2022-08-11T11:44:37;25.35;;;18.10;;
71637;SDS011;59485;43.542;-5.676;2022-08-11T11:47:06;32.92;;;21.98;;
71637;SDS011;59485;43.542;-5.676;2022-08-11T11:49:35;24.03;;;15.73;;
71637;SDS011;59485;43.542;-5.676;2022-08-11T11:52:07;26.52;;;15.82;;
71637;SDS011;59485;43.542;-5.676;2022-08-11T11:54:37;26.05;;;15.77;;
71637;SDS011;59485;43.542;-5.676;2022-08-11T11:59:32;28.15;;;16.10;;
71637;SDS011;59485;43.542;-5.676;2022-08-11T12:02:16;18.45;;;13.93;;
71637;SDS011;59485;43.542;-5.676;2022-08-11T12:04:43;29.83;;;14.77;;
71637;SDS011;59485;43.542;-5.676;2022-08-11T12:07:12;27.95;;;15.00;;
71637;SDS011;59485;43.542;-5.676;2022-08-11T12:09:57;21.90;;;14.43;;
71637;SDS011;59485;43.542;-5.676;2022-08-11T12:12:23;20.60;;;13.83;;
71637;SDS011;59485;43.542;-5.676;2022-08-11T12:15:08;23.38;;;15.20;;
71637;SDS011;59485;43.542;-5.676;2022-08-11T12:17:34;34.30;;;17.13;;
71637;SDS011;59485;43.542;-5.676;2022-08-11T12:20:02;28.33;;;18.33;;
71637;SDS011;59485;43.542;-5.676;2022-08-11T12:22:28;34.22;;;21.83;;
71637;SDS011;59485;43.542;-5.676;2022-08-11T12:25:13;34.00;;;19.83;;
71637;SDS011;59485;43.542;-5.676;2022-08-11T12:27:58;26.02;;;19.27;;
71637;SDS011;59485;43.542;-5.676;2022-08-11T12:30:24;30.27;;;20.48;;
71637;SDS011;59485;43.542;-5.676;2022-08-11T12:32:59;29.13;;;18.80;;
71637;SDS011;59485;43.542;-5.676;2022-08-11T12:35:24;30.17;;;18.07;;
71637;SDS011;59485;43.542;-5.676;2022-08-11T12:37:51;29.15;;;19.00;;
71637;SDS011;59485;43.542;-5.676;2022-08-11T12:40:23;34.33;;;17.58;;
71637;SDS011;59485;43.542;-5.676;2022-08-11T12:43:13;27.85;;;18.45;;
71637;SDS011;59485;43.542;-5.676;2022-08-11T12:46:01;27.40;;;18.65;;
71637;SDS011;59485;43.542;-5.676;2022-08-11T12:48:31;29.37;;;18.03;;
71637;SDS011;59485;43.542;-5.676;2022-08-11T12:51:22;35.88;;;22.80;;
71637;SDS011;59485;43.542;-5.676;2022-08-11T12:54:10;27.45;;;19.58;;
71637;SDS011;59485;43.542;-5.676;2022-08-11T12:56:36;35.83;;;22.30;;
71637;SDS011;59485;43.542;-5.676;2022-08-11T12:59:23;29.85;;;17.50;;
71637;SDS011;59485;43.542;-5.676;2022-08-11T13:02:08;35.83;;;17.47;;
71637;SDS011;59485;43.542;-5.676;2022-08-11T13:04:58;29.63;;;17.25;;
71637;SDS011;59485;43.542;-5.676;2022-08-11T13:15:32;26.80;;;15.63;;
71637;SDS011;59485;43.542;-5.676;2022-08-11T13:18:02;27.65;;;16.00;;
71637;SDS011;59485;43.542;-5.676;2022-08-11T13:20:38;31.77;;;15.77;;
71637;SDS011;59485;43.542;-5.676;2022-08-11T13:23:07;27.48;;;16.13;;
71637;SDS011;59485;43.542;-5.676;2022-08-11T13:25:37;30.33;;;16.73;;
71637;SDS011;59485;43.542;-5.676;2022-08-11T13:28:04;28.13;;;15.87;;
71637;SDS011;59485;43.542;-5.676;2022-08-11T13:30:30;33.20;;;16.73;;
71637;SDS011;59485;43.542;-5.676;2022-08-11T13:33:16;31.35;;;16.75;;
71637;SDS011;59485;43.542;-5.676;2022-08-11T13:35:46;29.05;;;16.73;;
71637;SDS011;59485;43.542;-5.676;2022-08-11T13:38:15;39.85;;;16.92;;
71637;SDS011;59485;43.542;-5.676;2022-08-11T13:40:44;30.83;;;15.63;;
71637;SDS011;59485;43.542;-5.676;2022-08-11T13:43:12;26.30;;;15.50;;
71637;SDS011;59485;43.542;-5.676;2022-08-11T13:45:38;26.77;;;15.00;;
71637;SDS011;59485;43.542;-5.676;2022-08-11T13:50:37;26.73;;;14.23;;
71637;SDS011;59485;43.542;-5.676;2022-08-11T13:53:39;23.63;;;14.27;;
71637;SDS011;59485;43.542;-5.676;2022-08-11T13:56:06;24.00;;;14.83;;
71637;SDS011;59485;43.542;-5.676;2022-08-11T13:58:32;25.88;;;14.13;;
71637;SDS011;59485;43.542;-5.676;2022-08-11T14:03:40;26.50;;;13.98;;
71637;SDS011;59485;43.542;-5.676;2022-08-11T14:06:10;23.53;;;12.23;;
71637;SDS011;59485;43.542;-5.676;2022-08-11T14:08:37;24.15;;;12.13;;
71637;SDS011;59485;43.542;-5.676;2022-08-11T14:11:31;25.35;;;12.90;;
71637;SDS011;59485;43.542;-5.676;2022-08-11T14:14:18;22.77;;;14.73;;
71637;SDS011;59485;43.542;-5.676;2022-08-11T14:16:57;24.33;;;14.73;;
71637;SDS011;59485;43.542;-5.676;2022-08-11T14:19:32;32.27;;;15.27;;
71637;SDS011;59485;43.542;-5.676;2022-08-11T14:22:27;26.50;;;14.57;;
71637;SDS011;59485;43.542;-5.676;2022-08-11T14:24:53;26.27;;;15.30;;
71637;SDS011;59485;43.542;-5.676;2022-08-11T14:29:49;27.42;;;15.95;;
71637;SDS011;59485;43.542;-5.676;2022-08-11T14:35:16;21.67;;;13.52;;
71637;SDS011;59485;43.542;-5.676;2022-08-11T14:38:11;26.42;;;15.38;;
71637;SDS011;59485;43.542;-5.676;2022-08-11T14:40:37;22.35;;;15.38;;
71637;SDS011;59485;43.542;-5.676;2022-08-11T14:43:21;26.40;;;15.23;;
71637;SDS011;59485;43.542;-5.676;2022-08-11T14:46:05;19.97;;;14.40;;
71637;SDS011;59485;43.542;-5.676;2022-08-11T14:48:50;23.85;;;14.27;;
71637;SDS011;59485;43.542;-5.676;2022-08-11T14:51:20;26.58;;;15.38;;
71637;SDS011;59485;43.542;-5.676;2022-08-11T14:53:46;22.17;;;12.57;;
71637;SDS011;59485;43.542;-5.676;2022-08-11T14:56:13;21.90;;;14.77;;
71637;SDS011;59485;43.542;-5.676;2022-08-11T14:58:57;25.10;;;15.30;;
71637;SDS011;59485;43.542;-5.676;2022-08-11T15:01:24;23.88;;;14.27;;
71637;SDS011;59485;43.542;-5.676;2022-08-11T15:04:09;21.67;;;13.48;;
71637;SDS011;59485;43.542;-5.676;2022-08-11T15:06:35;21.23;;;12.10;;
71637;SDS011;59485;43.542;-5.676;2022-08-11T15:09:02;20.23;;;11.07;;
71637;SDS011;59485;43.542;-5.676;2022-08-11T15:11:31;19.27;;;13.00;;
71637;SDS011;59485;43.542;-5.676;2022-08-11T15:14:16;18.25;;;13.40;;
71637;SDS011;59485;43.542;-5.676;2022-08-11T15:17:04;19.50;;;11.68;;
71637;SDS011;59485;43.542;-5.676;2022-08-11T15:19:38;18.85;;;11.93;;
71637;SDS011;59485;43.542;-5.676;2022-08-11T15:22:27;19.75;;;12.80;;
71637;SDS011;59485;43.542;-5.676;2022-08-11T15:25:11;15.83;;;10.30;;
71637;SDS011;59485;43.542;-5.676;2022-08-11T15:27:37;17.42;;;11.75;;
71637;SDS011;59485;43.542;-5.676;2022-08-11T15:30:24;18.98;;;12.45;;
71637;SDS011;59485;43.542;-5.676;2022-08-11T15:33:10;19.95;;;12.18;;
71637;SDS011;59485;43.542;-5.676;2022-08-11T15:35:57;22.55;;;11.40;;
71637;SDS011;59485;43.542;-5.676;2022-08-11T15:39:07;19.37;;;11.53;;
71637;SDS011;59485;43.542;-5.676;2022-08-11T15:42:14;18.40;;;12.27;;
71637;SDS011;59485;43.542;-5.676;2022-08-11T15:44:59;19.25;;;11.95;;
71637;SDS011;59485;43.542;-5.676;2022-08-11T15:47:51;17.23;;;12.52;;
71637;SDS011;59485;43.542;-5.676;2022-08-11T15:50:24;17.75;;;11.57;;
71637;SDS011;59485;43.542;-5.676;2022-08-11T15:53:02;21.23;;;13.40;;
71637;SDS011;59485;43.542;-5.676;2022-08-11T15:55:50;20.13;;;12.90;;
71637;SDS011;59485;43.542;-5.676;2022-08-11T15:58:23;16.70;;;10.98;;
71637;SDS011;59485;43.542;-5.676;2022-08-11T16:01:23;15.60;;;10.77;;
71637;SDS011;59485;43.542;-5.676;2022-08-11T16:04:09;19.45;;;10.90;;
71637;SDS011;59485;43.542;-5.676;2022-08-11T16:06:49;18.07;;;10.90;;
71637;SDS011;59485;43.542;-5.676;2022-08-11T16:12:34;19.58;;;10.07;;
71637;SDS011;59485;43.542;-5.676;2022-08-11T16:15:37;17.13;;;9.50;;
71637;SDS011;59485;43.542;-5.676;2022-08-11T16:18:26;19.27;;;9.82;;
71637;SDS011;59485;43.542;-5.676;2022-08-11T16:21:17;18.63;;;9.60;;
71637;SDS011;59485;43.542;-5.676;2022-08-11T16:23:48;14.02;;;8.40;;
71637;SDS011;59485;43.542;-5.676;2022-08-11T16:26:22;16.73;;;9.20;;
71637;SDS011;59485;43.542;-5.676;2022-08-11T16:29:01;17.27;;;9.25;;
71637;SDS011;59485;43.542;-5.676;2022-08-11T16:31:27;16.10;;;8.73;;
71637;SDS011;59485;43.542;-5.676;2022-08-11T16:33:57;18.00;;;9.00;;
71637;SDS011;59485;43.542;-5.676;2022-08-11T16:36:24;13.95;;;7.35;;
71637;SDS011;59485;43.542;-5.676;2022-08-11T16:39:09;14.73;;;8.95;;
71637;SDS011;59485;43.542;-5.676;2022-08-11T16:41:38;18.52;;;8.63;;
71637;SDS011;59485;43.542;-5.676;2022-08-11T16:44:24;18.33;;;8.18;;
71637;SDS011;59485;43.542;-5.676;2022-08-11T16:47:12;18.00;;;8.33;;
71637;SDS011;59485;43.542;-5.676;2022-08-11T16:50:03;15.48;;;7.80;;
71637;SDS011;59485;43.542;-5.676;2022-08-11T16:52:30;14.40;;;7.50;;
71637;SDS011;59485;43.542;-5.676;2022-08-11T16:54:56;17.07;;;8.67;;
71637;SDS011;59485;43.542;-5.676;2022-08-11T16:57:27;18.15;;;8.88;;
71637;SDS011;59485;43.542;-5.676;2022-08-11T17:00:14;20.15;;;9.20;;
71637;SDS011;59485;43.542;-5.676;2022-08-11T17:02:44;18.85;;;8.95;;
71637;SDS011;59485;43.542;-5.676;2022-08-11T17:08:01;17.83;;;8.63;;
71637;SDS011;59485;43.542;-5.676;2022-08-11T17:10:48;23.23;;;8.80;;
71637;SDS011;59485;43.542;-5.676;2022-08-11T17:16:01;24.77;;;9.90;;
71637;SDS011;59485;43.542;-5.676;2022-08-11T17:21:04;15.90;;;9.07;;
71637;SDS011;59485;43.542;-5.676;2022-08-11T17:26:04;16.30;;;9.60;;
71637;SDS011;59485;43.542;-5.676;2022-08-11T17:28:30;23.02;;;9.27;;
71637;SDS011;59485;43.542;-5.676;2022-08-11T17:34:19;13.90;;;8.68;;
71637;SDS011;59485;43.542;-5.676;2022-08-11T17:39:31;13.10;;;8.15;;
71637;SDS011;59485;43.542;-5.676;2022-08-11T17:41:59;14.75;;;7.72;;
71637;SDS011;59485;43.542;-5.676;2022-08-11T17:51:41;20.37;;;10.23;;
71637;SDS011;59485;43.542;-5.676;2022-08-11T17:57:08;26.00;;;10.25;;
71637;SDS011;59485;43.542;-5.676;2022-08-11T17:59:59;21.65;;;10.77;;
71637;SDS011;59485;43.542;-5.676;2022-08-11T18:02:32;21.45;;;11.25;;
71637;SDS011;59485;43.542;-5.676;2022-08-11T18:05:34;24.87;;;10.20;;
71637;SDS011;59485;43.542;-5.676;2022-08-11T18:10:58;35.00;;;11.88;;
71637;SDS011;59485;43.542;-5.676;2022-08-11T18:16:39;26.65;;;11.73;;
71637;SDS011;59485;43.542;-5.676;2022-08-11T18:19:41;28.00;;;11.73;;
71637;SDS011;59485;43.542;-5.676;2022-08-11T18:22:28;24.85;;;10.90;;
71637;SDS011;59485;43.542;-5.676;2022-08-11T18:25:37;21.50;;;11.35;;
71637;SDS011;59485;43.542;-5.676;2022-08-11T18:28:31;22.27;;;10.85;;
71637;SDS011;59485;43.542;-5.676;2022-08-11T18:31:32;19.85;;;10.02;;
71637;SDS011;59485;43.542;-5.676;2022-08-11T18:34:19;20.43;;;11.20;;
71637;SDS011;59485;43.542;-5.676;2022-08-11T18:37:10;20.98;;;10.98;;
71637;SDS011;59485;43.542;-5.676;2022-08-11T18:40:16;22.17;;;12.13;;
71637;SDS011;59485;43.542;-5.676;2022-08-11T18:45:43;20.65;;;11.07;;
71637;SDS011;59485;43.542;-5.676;2022-08-11T18:56:38;22.10;;;10.38;;
71637;SDS011;59485;43.542;-5.676;2022-08-11T18:59:28;20.95;;;11.05;;
71637;SDS011;59485;43.542;-5.676;2022-08-11T19:02:28;21.60;;;11.40;;
71637;SDS011;59485;43.542;-5.676;2022-08-11T19:05:14;17.05;;;10.70;;
71637;SDS011;59485;43.542;-5.676;2022-08-11T19:08:00;17.23;;;10.35;;
71637;SDS011;59485;43.542;-5.676;2022-08-11T19:10:49;18.85;;;10.73;;
71637;SDS011;59485;43.542;-5.676;2022-08-11T19:13:34;17.23;;;9.88;;
71637;SDS011;59485;43.542;-5.676;2022-08-11T19:16:23;16.70;;;10.53;;
71637;SDS011;59485;43.542;-5.676;2022-08-11T19:19:21;16.67;;;10.80;;
71637;SDS011;59485;43.542;-5.676;2022-08-11T19:22:09;17.08;;;9.75;;
71637;SDS011;59485;43.542;-5.676;2022-08-11T19:25:12;19.13;;;11.88;;
71637;SDS011;59485;43.542;-5.676;2022-08-11T19:27:57;16.77;;;10.20;;
71637;SDS011;59485;43.542;-5.676;2022-08-11T19:30:43;22.27;;;12.33;;
71637;SDS011;59485;43.542;-5.676;2022-08-11T19:33:28;20.27;;;12.27;;
71637;SDS011;59485;43.542;-5.676;2022-08-11T19:36:13;18.45;;;12.32;;
71637;SDS011;59485;43.542;-5.676;2022-08-11T19:38:59;22.58;;;13.75;;
71637;SDS011;59485;43.542;-5.676;2022-08-11T19:41:53;23.55;;;14.15;;
71637;SDS011;59485;43.542;-5.676;2022-08-11T19:44:50;23.33;;;13.33;;
71637;SDS011;59485;43.542;-5.676;2022-08-11T19:47:51;23.45;;;12.70;;
71637;SDS011;59485;43.542;-5.676;2022-08-11T19:50:37;18.15;;;13.20;;
71637;SDS011;59485;43.542;-5.676;2022-08-11T19:53:26;20.33;;;12.55;;
71637;SDS011;59485;43.542;-5.676;2022-08-11T19:56:17;27.85;;;13.70;;
71637;SDS011;59485;43.542;-5.676;2022-08-11T19:59:03;20.33;;;13.27;;
71637;SDS011;59485;43.542;-5.676;2022-08-11T20:01:47;21.25;;;12.77;;
71637;SDS011;59485;43.542;-5.676;2022-08-11T20:04:31;27.73;;;14.43;;
71637;SDS011;59485;43.542;-5.676;2022-08-11T20:07:15;32.03;;;17.30;;
71637;SDS011;59485;43.542;-5.676;2022-08-11T20:10:01;34.42;;;15.57;;
71637;SDS011;59485;43.542;-5.676;2022-08-11T20:12:48;38.37;;;17.00;;
71637;SDS011;59485;43.542;-5.676;2022-08-11T20:15:32;30.88;;;15.88;;